Time;durP1;ratioP1;P1;durP2;ratioP2;P2;SDS_P1;SDS_P2;PMS_P1;PMS_P2;Temp;Humidity;BMP_temperature;BMP_pressure;BME280_temperature;BME280_humidity;BME280_pressure;Samples;Min_cycle;Max_cycle;Signal;HPM_P1;HPM_P2
2022/11/29 00:00:57;;;;;;;;;;;17.40;57.30;;;;;;5073679;28;20392;-68
2022/11/29 00:03:23;;;;;;;;;;;17.40;57.30;;;;;;5055657;28;19921;-67
2022/11/29 00:05:48;;;;;;;;;;;17.40;57.30;;;;;;5055500;28;19924;-67
2022/11/29 00:08:14;;;;;;;;;;;17.40;57.30;;;;;;5072935;28;19971;-67
2022/11/29 00:10:39;;;;;;;;;;;17.40;57.40;;;;;;5055432;28;20050;-67
2022/11/29 00:13:05;;;;;;;;;;;17.30;57.30;;;;;;5071559;28;19920;-67
2022/11/29 00:15:34;;;;;;;;;;;17.30;57.30;;;;;;5073293;28;19936;-67
2022/11/29 00:17:59;;;;;;;;;;;17.40;57.40;;;;;;5054330;28;19921;-67
2022/11/29 00:20:25;;;;;;;;;;;17.30;57.30;;;;;;5073084;28;19927;-67
2022/11/29 00:22:50;;;;;;;;;;;17.30;57.30;;;;;;5054869;28;19932;-67
2022/11/29 00:25:16;;;;;;;;;;;17.30;57.40;;;;;;5055275;28;19923;-67
2022/11/29 00:27:41;;;;;;;;;;;17.30;57.40;;;;;;5072709;28;20032;-67
2022/11/29 00:30:07;;;;;;;;;;;17.30;57.40;;;;;;5054723;28;20368;-67
2022/11/29 00:32:33;;;;;;;;;;;17.30;57.40;;;;;;5073153;28;19923;-69
2022/11/29 00:34:58;;;;;;;;;;;17.30;57.40;;;;;;5066664;28;19917;-68
2022/11/29 00:37:24;;;;;;;;;;;17.30;57.50;;;;;;5054055;28;20276;-67
2022/11/29 00:39:49;;;;;;;;;;;17.30;57.40;;;;;;5072552;28;19916;-67
2022/11/29 00:42:15;;;;;;;;;;;17.30;57.50;;;;;;5071799;28;20011;-67
2022/11/29 00:44:40;;;;;;;;;;;17.30;57.50;;;;;;5054549;28;20322;-67
2022/11/29 00:47:06;;;;;;;;;;;17.20;57.40;;;;;;5054072;28;19927;-67
2022/11/29 00:49:31;;;;;;;;;;;17.20;57.40;;;;;;5054296;28;20171;-67
2022/11/29 00:51:57;;;;;;;;;;;17.20;57.40;;;;;;5054386;28;19928;-67
2022/11/29 00:54:22;;;;;;;;;;;17.20;57.40;;;;;;5072355;28;19927;-67
2022/11/29 00:56:48;;;;;;;;;;;17.20;57.40;;;;;;5070945;28;19976;-67
2022/11/29 00:59:13;;;;;;;;;;;17.20;57.40;;;;;;5072179;28;20183;-67
2022/11/29 01:01:39;;;;;;;;;;;17.20;57.40;;;;;;5071979;28;19920;-67
2022/11/29 01:04:05;;;;;;;;;;;17.20;57.40;;;;;;5072059;28;19924;-66
2022/11/29 01:06:30;;;;;;;;;;;17.20;57.40;;;;;;5054132;28;19981;-67
2022/11/29 01:08:56;;;;;;;;;;;17.20;57.40;;;;;;5053094;28;19986;-67
2022/11/29 01:11:23;;;;;;;;;;;17.20;57.40;;;;;;5072183;28;19958;-67
2022/11/29 01:13:50;;;;;;;;;;;17.20;57.40;;;;;;5054124;28;19924;-67
2022/11/29 01:16:16;;;;;;;;;;;17.20;57.40;;;;;;5053916;28;20372;-67
2022/11/29 01:18:42;;;;;;;;;;;17.20;57.50;;;;;;5071745;28;19916;-67
2022/11/29 01:21:09;;;;;;;;;;;17.20;57.50;;;;;;5054284;28;19928;-67
2022/11/29 01:23:35;;;;;;;;;;;17.20;57.50;;;;;;5072017;28;19928;-67
2022/11/29 01:26:04;;;;;;;;;;;17.20;57.50;;;;;;5053869;28;20374;-67
2022/11/29 01:28:30;;;;;;;;;;;17.20;57.50;;;;;;5053469;28;19916;-67
2022/11/29 01:30:55;;;;;;;;;;;17.20;57.50;;;;;;5071674;28;19920;-67
2022/11/29 01:33:21;;;;;;;;;;;17.10;57.50;;;;;;5071590;28;20017;-69
2022/11/29 01:35:47;;;;;;;;;;;17.10;57.50;;;;;;5069709;28;20415;-67
2022/11/29 01:38:13;;;;;;;;;;;17.10;57.50;;;;;;5053464;28;19928;-67
2022/11/29 01:40:38;;;;;;;;;;;17.10;57.50;;;;;;5053501;28;19944;-67
2022/11/29 01:43:11;;;;;;;;;;;17.10;57.50;;;;;;5053614;28;19939;-67
2022/11/29 01:45:37;;;;;;;;;;;17.10;57.50;;;;;;5053488;28;19927;-67
2022/11/29 01:48:03;;;;;;;;;;;17.20;57.50;;;;;;5070763;28;19926;-66
2022/11/29 01:50:29;;;;;;;;;;;17.10;57.50;;;;;;5053612;28;20358;-68
2022/11/29 01:52:54;;;;;;;;;;;17.10;57.50;;;;;;5069828;28;19920;-66
2022/11/29 01:55:20;;;;;;;;;;;17.10;57.50;;;;;;5071143;28;19924;-67
2022/11/29 01:57:45;;;;;;;;;;;17.10;57.50;;;;;;5071101;28;19925;-66
2022/11/29 02:00:13;;;;;;;;;;;17.10;57.50;;;;;;5069761;28;19921;-66
2022/11/29 02:02:42;;;;;;;;;;;17.10;57.60;;;;;;5071105;28;19920;-67
2022/11/29 02:05:08;;;;;;;;;;;17.10;57.60;;;;;;5071009;28;20364;-68
2022/11/29 02:07:34;;;;;;;;;;;17.10;57.60;;;;;;5052813;28;19928;-66
2022/11/29 02:10:00;;;;;;;;;;;17.30;57.30;;;;;;5052810;28;19927;-66
2022/11/29 02:17:58;;;;;;;;;;;18.20;55.30;;;;;;5114159;27;1865926;-68
2022/11/29 02:20:41;;;;;;;;;;;18.70;54.40;;;;;;5158593;27;19976;-66
2022/11/29 02:23:26;;;;;;;;;;;19.20;53.20;;;;;;5157859;27;19919;-68
2022/11/29 02:25:59;;;;;;;;;;;19.90;51.80;;;;;;5155850;27;19919;-66
2022/11/29 02:28:45;;;;;;;;;;;20.70;50.10;;;;;;5160405;27;19996;-68
2022/11/29 02:31:30;;;;;;;;;;;21.30;49.30;;;;;;5159871;27;19927;-66
2022/11/29 02:34:15;;;;;;;;;;;22.00;47.10;;;;;;5150108;27;19919;-67
2022/11/29 02:37:01;;;;;;;;;;;22.50;45.90;;;;;;5155931;27;19972;-66
2022/11/29 02:45:01;;;;;;;;;;;22.90;44.70;;;;;;5087166;28;19916;-67
2022/11/29 02:50:18;;;;;;;;;;;22.60;45.10;;;;;;5086963;28;20412;-67
2022/11/29 03:00:54;;;;;;;;;;;21.60;46.80;;;;;;5087521;28;19924;-66
2022/11/29 03:03:23;;;;;;;;;;;21.30;47.20;;;;;;5087012;28;20448;-66
2022/11/29 03:08:32;;;;;;;;;;;20.90;48.00;;;;;;5103673;27;1863074;-67
2022/11/29 03:13:58;;;;;;;;;;;20.60;48.80;;;;;;5086916;28;19927;-66
2022/11/29 03:19:14;;;;;;;;;;;20.20;49.60;;;;;;5103759;27;1871727;-67
2022/11/29 03:21:44;;;;;;;;;;;20.00;49.90;;;;;;5148408;27;20324;-67
2022/11/29 03:24:14;;;;;;;;;;;19.90;50.20;;;;;;5129231;27;19954;-66
2022/11/29 03:29:21;;;;;;;;;;;19.60;50.80;;;;;;5087914;27;1859218;-67
2022/11/29 03:32:07;;;;;;;;;;;19.50;51.10;;;;;;5149240;27;20331;-66
2022/11/29 03:34:44;;;;;;;;;;;19.40;51.40;;;;;;5150070;27;20005;-68
2022/11/29 03:39:50;;;;;;;;;;;19.10;51.90;;;;;;5103962;27;1860179;-67
2022/11/29 03:42:35;;;;;;;;;;;19.10;52.20;;;;;;5151633;27;19959;-67
2022/11/29 03:45:04;;;;;;;;;;;19.10;52.10;;;;;;5150613;27;19950;-66
2022/11/29 03:47:34;;;;;;;;;;;19.30;51.90;;;;;;5158520;27;20315;-66
2022/11/29 03:52:49;;;;;;;;;;;19.60;51.10;;;;;;5107439;27;20314;-67
2022/11/29 03:55:31;;;;;;;;;;;19.70;50.80;;;;;;5088888;28;20003;-67
2022/11/29 04:00:59;;;;;;;;;;;20.00;50.10;;;;;;5107734;27;20271;-67
2022/11/29 04:14:27;;;;;;;;;;;20.60;48.70;;;;;;5106095;27;1862968;-66
2022/11/29 04:17:08;;;;;;;;;;;20.60;48.60;;;;;;5145906;27;19950;-66
2022/11/29 04:19:47;;;;;;;;;;;20.60;48.50;;;;;;5146326;27;19922;-67
2022/11/29 04:25:12;;;;;;;;;;;20.50;48.50;;;;;;5104129;27;1857210;-67
2022/11/29 04:30:43;;;;;;;;;;;20.40;48.70;;;;;;5114696;27;1862241;-67
2022/11/29 04:41:45;;;;;;;;;;;20.00;49.40;;;;;;5107658;27;19944;-67
2022/11/29 04:46:58;;;;;;;;;;;19.80;49.80;;;;;;5107677;27;19934;-66
2022/11/29 04:49:44;;;;;;;;;;;19.70;49.90;;;;;;5106450;28;19931;-68
2022/11/29 04:55:03;;;;;;;;;;;19.50;50.20;;;;;;5087333;28;19912;-66
2022/11/29 04:57:35;;;;;;;;;;;19.50;50.30;;;;;;5085971;28;19938;-67
2022/11/29 05:00:06;;;;;;;;;;;19.50;50.40;;;;;;5101902;28;19916;-67
2022/11/29 05:05:32;;;;;;;;;;;19.60;51.20;;;;;;5087413;28;19913;-67
2022/11/29 05:13:37;;;;;;;;;;;19.70;50.10;;;;;;5108849;27;1865748;-66
2022/11/29 05:16:13;;;;;;;;;;;19.70;49.80;;;;;;5146193;27;20018;-68
2022/11/29 05:18:58;;;;;;;;;;;19.90;49.70;;;;;;5146415;27;19971;-66
2022/11/29 05:21:44;;;;;;;;;;;19.90;49.40;;;;;;5145612;27;19920;-67
2022/11/29 05:24:29;;;;;;;;;;;20.00;49.30;;;;;;5146213;27;19969;-66
2022/11/29 05:27:04;;;;;;;;;;;20.10;49.10;;;;;;5146020;27;19938;-66
2022/11/29 05:29:50;;;;;;;;;;;20.10;48.80;;;;;;5145532;27;19954;-67
2022/11/29 05:35:09;;;;;;;;;;;20.20;48.60;;;;;;5110840;27;1860641;-66
2022/11/29 05:37:47;;;;;;;;;;;20.20;48.50;;;;;;5149860;27;20257;-68
2022/11/29 05:40:32;;;;;;;;;;;20.30;48.50;;;;;;5149721;27;19921;-67
2022/11/29 05:48:26;;;;;;;;;;;20.20;48.40;;;;;;5104306;27;1855206;-66
2022/11/29 05:51:12;;;;;;;;;;;20.20;48.40;;;;;;5157886;27;20411;-66
2022/11/29 05:53:44;;;;;;;;;;;20.20;48.50;;;;;;5149088;27;19921;-67
2022/11/29 05:59:14;;;;;;;;;;;20.10;48.60;;;;;;5087172;28;20291;-68
2022/11/29 06:01:46;;;;;;;;;;;20.10;48.70;;;;;;5085372;28;19921;-66
2022/11/29 06:04:16;;;;;;;;;;;20.00;48.80;;;;;;5086794;28;20003;-67
2022/11/29 06:06:43;;;;;;;;;;;20.00;48.90;;;;;;5085751;28;19928;-66
2022/11/29 06:09:15;;;;;;;;;;;19.90;48.90;;;;;;5085675;28;19971;-67
2022/11/29 06:11:44;;;;;;;;;;;19.90;48.90;;;;;;5085504;28;19998;-68
2022/11/29 06:14:24;;;;;;;;;;;19.90;49.10;;;;;;5087090;28;20278;-67
2022/11/29 06:20:07;;;;;;;;;;;19.80;49.20;;;;;;5087119;28;19924;-67
2022/11/29 06:22:41;;;;;;;;;;;19.80;49.20;;;;;;5100528;28;19920;-67
2022/11/29 06:28:04;;;;;;;;;;;19.80;49.20;;;;;;5087093;28;19929;-67
2022/11/29 06:30:40;;;;;;;;;;;19.80;49.20;;;;;;5081893;28;19933;-67
2022/11/29 06:38:29;;;;;;;;;;;19.80;49.70;;;;;;5113756;27;1850452;-66
2022/11/29 06:40:55;;;;;;;;;;;19.90;49.80;;;;;;5128099;27;20374;-65
2022/11/29 06:43:21;;;;;;;;;;;19.90;49.70;;;;;;5128335;27;19919;-67
2022/11/29 06:45:48;;;;;;;;;;;19.90;49.70;;;;;;5145912;27;20010;-66
2022/11/29 06:48:18;;;;;;;;;;;19.90;49.60;;;;;;5145502;27;19942;-66
2022/11/29 06:53:36;;;;;;;;;;;20.00;49.70;;;;;;5104765;27;19923;-65
2022/11/29 06:58:54;;;;;;;;;;;20.10;49.70;;;;;;5082726;28;19916;-71
2022/11/29 07:01:26;;;;;;;;;;;20.10;49.70;;;;;;5078748;28;19932;-70
2022/11/29 07:04:01;;;;;;;;;;;20.10;49.90;;;;;;5082421;28;19978;-72
2022/11/29 07:06:27;;;;;;;;;;;20.10;50.20;;;;;;5081057;28;19920;-66
2022/11/29 07:08:57;;;;;;;;;;;20.10;50.50;;;;;;5096497;28;19927;-68
2022/11/29 07:11:23;;;;;;;;;;;20.00;50.70;;;;;;5074436;28;19932;-67
2022/11/29 07:13:49;;;;;;;;;;;20.00;50.70;;;;;;5065927;28;20488;-69
2022/11/29 07:19:01;;;;;;;;;;;19.80;50.70;;;;;;5080484;28;19916;-70
2022/11/29 07:27:25;;;;;;;;;;;19.60;51.40;;;;;;5086640;27;1874757;-68
2022/11/29 07:35:31;;;;;;;;;;;19.30;52.90;;;;;;5129946;27;19923;-69
2022/11/29 07:43:50;;;;;;;;;;;19.10;53.90;;;;;;5076219;27;1859011;-70
2022/11/29 07:46:16;;;;;;;;;;;19.10;54.00;;;;;;5116843;27;19983;-69
2022/11/29 07:48:41;;;;;;;;;;;19.10;54.10;;;;;;5118072;27;19927;-67
2022/11/29 07:51:07;;;;;;;;;;;19.00;54.20;;;;;;5112931;27;19930;-68
2022/11/29 07:53:36;;;;;;;;;;;19.00;54.40;;;;;;5135584;27;19932;-70
2022/11/29 07:56:02;;;;;;;;;;;19.00;54.50;;;;;;5132548;27;20421;-70
2022/11/29 07:58:28;;;;;;;;;;;19.60;54.10;;;;;;5112969;27;19962;-68
2022/11/29 08:00:53;;;;;;;;;;;20.20;52.90;;;;;;5120373;27;20493;-66
2022/11/29 08:03:19;;;;;;;;;;;21.00;51.30;;;;;;5108186;27;19938;-70
2022/11/29 08:05:45;;;;;;;;;;;21.90;49.60;;;;;;5132562;27;19928;-68
2022/11/29 08:08:10;;;;;;;;;;;22.80;47.90;;;;;;5113407;27;19923;-70
2022/11/29 08:10:37;;;;;;;;;;;23.40;46.50;;;;;;5111068;27;19993;-71
2022/11/29 08:13:02;;;;;;;;;;;23.90;45.50;;;;;;5131559;27;19928;-69
2022/11/29 08:15:28;;;;;;;;;;;24.30;44.70;;;;;;5129573;27;20286;-69
2022/11/29 08:17:53;;;;;;;;;;;24.60;43.90;;;;;;5119670;27;19920;-66
2022/11/29 08:20:19;;;;;;;;;;;24.90;43.40;;;;;;5129329;27;19934;-68
2022/11/29 08:22:51;;;;;;;;;;;25.20;42.90;;;;;;5114564;27;20662;-66
2022/11/29 08:25:17;;;;;;;;;;;25.30;42.50;;;;;;5117211;27;19923;-72
2022/11/29 08:27:42;;;;;;;;;;;25.20;42.40;;;;;;5115605;27;20413;-67
2022/11/29 08:30:08;;;;;;;;;;;25.10;42.60;;;;;;5118436;27;19934;-67
2022/11/29 08:32:34;;;;;;;;;;;24.90;42.90;;;;;;5116090;27;19927;-67
2022/11/29 08:35:00;;;;;;;;;;;24.60;43.30;;;;;;5117205;27;19928;-67
2022/11/29 08:37:25;;;;;;;;;;;24.50;43.70;;;;;;5115697;27;19927;-68
2022/11/29 08:39:51;;;;;;;;;;;24.30;44.10;;;;;;5117387;27;20047;-66
2022/11/29 08:42:16;;;;;;;;;;;24.00;44.50;;;;;;5135306;27;19927;-67
2022/11/29 08:44:42;;;;;;;;;;;23.70;45.10;;;;;;5115957;27;20298;-66
2022/11/29 08:47:41;;;;;;;;;;;23.50;45.50;;;;;;5132313;27;19930;-66
2022/11/29 08:50:01;;;;;;;;;;;23.20;45.90;;;;;;5115430;27;19944;-66
2022/11/29 08:55:13;;;;;;;;;;;22.70;47.00;;;;;;5104342;27;19954;-66
2022/11/29 08:57:38;;;;;;;;;;;22.50;47.50;;;;;;5120438;27;19954;-69
2022/11/29 09:00:04;;;;;;;;;;;22.30;48.00;;;;;;5121080;27;19927;-64
2022/11/29 09:02:30;;;;;;;;;;;22.10;48.40;;;;;;5101929;27;20010;-68
2022/11/29 09:04:55;;;;;;;;;;;22.00;48.80;;;;;;5106980;27;20532;-67
2022/11/29 09:07:21;;;;;;;;;;;22.00;49.00;;;;;;5098513;27;19920;-66
2022/11/29 09:09:47;;;;;;;;;;;22.00;49.10;;;;;;5117575;27;20014;-66
2022/11/29 09:12:12;;;;;;;;;;;22.10;49.00;;;;;;5113305;27;19920;-66
2022/11/29 09:14:38;;;;;;;;;;;22.20;48.80;;;;;;5116015;27;19971;-66
2022/11/29 09:17:03;;;;;;;;;;;22.30;48.60;;;;;;5095608;27;19927;-67
2022/11/29 09:19:29;;;;;;;;;;;22.40;48.30;;;;;;5109273;27;19924;-66
2022/11/29 09:21:55;;;;;;;;;;;22.50;48.00;;;;;;5122728;27;19947;-66
2022/11/29 09:24:20;;;;;;;;;;;22.60;47.80;;;;;;5100639;27;19974;-66
2022/11/29 09:26:47;;;;;;;;;;;22.70;47.60;;;;;;5105723;27;19920;-65
2022/11/29 09:29:14;;;;;;;;;;;22.80;47.50;;;;;;5099379;27;19920;-67
2022/11/29 09:31:40;;;;;;;;;;;22.90;47.50;;;;;;5094955;27;20350;-68
2022/11/29 09:34:05;;;;;;;;;;;22.80;47.40;;;;;;5101247;27;20006;-67
2022/11/29 09:36:31;;;;;;;;;;;22.90;47.40;;;;;;5098413;27;20700;-67
2022/11/29 09:38:57;;;;;;;;;;;23.00;47.30;;;;;;5099069;27;20477;-66
2022/11/29 09:44:23;;;;;;;;;;;23.00;47.00;;;;;;5066302;28;19935;-66
2022/11/29 09:46:59;;;;;;;;;;;22.80;47.10;;;;;;5073399;28;19952;-69
2022/11/29 09:49:33;;;;;;;;;;;22.60;47.40;;;;;;5053389;28;19924;-67
2022/11/29 09:52:19;;;;;;;;;;;22.50;47.70;;;;;;5054336;28;20497;-68
2022/11/29 09:57:29;;;;;;;;;;;22.50;47.90;;;;;;5090398;27;20391;-70
2022/11/29 09:59:57;;;;;;;;;;;22.60;47.70;;;;;;5071514;28;19935;-67
2022/11/29 10:02:30;;;;;;;;;;;22.70;47.60;;;;;;5070207;28;19937;-67
2022/11/29 10:05:00;;;;;;;;;;;22.80;47.60;;;;;;5068885;28;19930;-67
2022/11/29 10:10:24;;;;;;;;;;;22.70;47.50;;;;;;5071207;27;19917;-69
2022/11/29 10:12:53;;;;;;;;;;;22.80;47.60;;;;;;5102062;28;19925;-66
2022/11/29 10:15:28;;;;;;;;;;;22.80;47.60;;;;;;5097956;28;20469;-66
2022/11/29 10:18:00;;;;;;;;;;;22.80;47.60;;;;;;5062597;28;20683;-67
2022/11/29 10:20:27;;;;;;;;;;;22.80;47.60;;;;;;5096485;28;19932;-66
2022/11/29 10:22:56;;;;;;;;;;;22.80;47.60;;;;;;5095015;27;19928;-72
2022/11/29 10:25:24;;;;;;;;;;;22.70;47.70;;;;;;5066360;28;19921;-66
2022/11/29 10:27:50;;;;;;;;;;;22.70;47.80;;;;;;5051109;28;20434;-67
2022/11/29 10:30:16;;;;;;;;;;;22.70;48.00;;;;;;5065633;28;19932;-67
2022/11/29 10:32:44;;;;;;;;;;;22.60;48.90;;;;;;5064426;28;19927;-68
2022/11/29 10:35:11;;;;;;;;;;;22.60;48.30;;;;;;5065479;28;19928;-67
2022/11/29 10:37:37;;;;;;;;;;;22.60;48.30;;;;;;5067624;28;19928;-67
2022/11/29 10:40:09;;;;;;;;;;;22.60;48.40;;;;;;5068914;28;20459;-72
2022/11/29 10:42:52;;;;;;;;;;;22.60;48.40;;;;;;5067097;28;19924;-69
2022/11/29 10:45:37;;;;;;;;;;;22.60;48.40;;;;;;5065149;28;19921;-68
2022/11/29 10:48:05;;;;;;;;;;;22.60;48.30;;;;;;5068907;28;19924;-69
2022/11/29 10:50:33;;;;;;;;;;;22.80;48.30;;;;;;5069079;28;19935;-67
2022/11/29 10:53:01;;;;;;;;;;;23.00;48.10;;;;;;5069139;28;19932;-68
2022/11/29 10:55:29;;;;;;;;;;;23.40;47.50;;;;;;5072376;28;19925;-66
2022/11/29 10:58:12;;;;;;;;;;;23.80;46.80;;;;;;5070709;28;19921;-67
2022/11/29 11:00:42;;;;;;;;;;;24.20;46.00;;;;;;5101979;28;20011;-67
2022/11/29 11:03:14;;;;;;;;;;;24.40;45.40;;;;;;5101262;27;20639;-66
2022/11/29 11:05:40;;;;;;;;;;;24.60;45.00;;;;;;5067916;28;20394;-68
2022/11/29 11:08:15;;;;;;;;;;;24.80;44.70;;;;;;5071749;28;19924;-66
2022/11/29 11:10:41;;;;;;;;;;;25.00;44.30;;;;;;5104045;27;19928;-69
2022/11/29 11:13:19;;;;;;;;;;;25.30;44.10;;;;;;5070979;28;19936;-65
2022/11/29 11:15:44;;;;;;;;;;;25.50;43.80;;;;;;5075889;28;19924;-66
2022/11/29 11:18:17;;;;;;;;;;;25.70;43.50;;;;;;5071472;28;19993;-66
2022/11/29 11:20:50;;;;;;;;;;;25.80;43.30;;;;;;5067272;28;19926;-66
2022/11/29 11:23:25;;;;;;;;;;;25.70;44.10;;;;;;5056232;28;19924;-65
2022/11/29 11:25:55;;;;;;;;;;;25.50;43.30;;;;;;5075913;28;19924;-67
2022/11/29 11:28:23;;;;;;;;;;;25.40;43.70;;;;;;5061920;28;19924;-67
2022/11/29 11:30:51;;;;;;;;;;;25.30;44.00;;;;;;5093670;28;19928;-67
2022/11/29 11:33:34;;;;;;;;;;;25.20;44.30;;;;;;5092914;28;20398;-65
2022/11/29 11:36:02;;;;;;;;;;;25.00;44.50;;;;;;5092767;28;20447;-66
2022/11/29 11:38:27;;;;;;;;;;;24.90;44.90;;;;;;5090649;28;19967;-72
2022/11/29 11:41:13;;;;;;;;;;;24.80;45.00;;;;;;5062659;28;20464;-66
2022/11/29 11:43:39;;;;;;;;;;;24.70;45.00;;;;;;5086175;27;20015;-68
2022/11/29 11:46:05;;;;;;;;;;;24.60;45.10;;;;;;5048719;28;19924;-68
2022/11/29 11:48:31;;;;;;;;;;;24.30;45.10;;;;;;5056344;28;19924;-68
2022/11/29 11:50:58;;;;;;;;;;;24.10;45.80;;;;;;5075374;28;19986;-66
2022/11/29 11:53:26;;;;;;;;;;;24.00;46.10;;;;;;5074788;28;19924;-68
2022/11/29 11:55:55;;;;;;;;;;;24.00;46.30;;;;;;5075346;28;20280;-69
2022/11/29 11:58:21;;;;;;;;;;;23.70;46.30;;;;;;5092001;28;19963;-68
2022/11/29 12:00:55;;;;;;;;;;;23.90;47.20;;;;;;5074665;28;19921;-67
2022/11/29 12:03:24;;;;;;;;;;;24.10;46.40;;;;;;5086254;28;20518;-67
2022/11/29 12:05:52;;;;;;;;;;;24.10;46.30;;;;;;5088328;28;20042;-71
2022/11/29 12:08:18;;;;;;;;;;;24.00;46.30;;;;;;5081428;28;19932;-68
2022/11/29 12:10:44;;;;;;;;;;;24.00;46.30;;;;;;5088954;28;19928;-68
2022/11/29 12:13:16;;;;;;;;;;;24.10;46.40;;;;;;5052992;28;19924;-70
2022/11/29 12:15:43;;;;;;;;;;;24.20;46.10;;;;;;5054041;28;19932;-70
2022/11/29 12:18:12;;;;;;;;;;;24.30;45.90;;;;;;5084183;28;19932;-68
2022/11/29 12:23:52;;;;;;;;;;;24.40;45.80;;;;;;5080148;27;19947;-66
2022/11/29 12:26:22;;;;;;;;;;;24.70;45.60;;;;;;5076338;28;20612;-68
2022/11/29 12:28:49;;;;;;;;;;;24.70;45.40;;;;;;5107112;28;19955;-68
2022/11/29 12:34:19;;;;;;;;;;;24.80;45.30;;;;;;5070123;28;19947;-65
2022/11/29 12:36:51;;;;;;;;;;;24.90;45.20;;;;;;5069496;28;19928;-65
2022/11/29 12:53:29;;;;;;;;;;;24.70;45.80;;;;;;5064548;27;19920;-72
2022/11/29 12:56:15;;;;;;;;;;;24.50;45.90;;;;;;5084675;28;19925;-68
2022/11/29 13:01:30;;;;;;;;;;;24.40;46.50;;;;;;5102136;27;20384;-69
2022/11/29 13:04:02;;;;;;;;;;;24.30;46.50;;;;;;5090682;28;19935;-73
2022/11/29 13:09:14;;;;;;;;;;;24.20;47.00;;;;;;5046832;28;20314;-70
2022/11/29 13:11:43;;;;;;;;;;;24.10;47.10;;;;;;5046267;28;19925;-69
2022/11/29 13:14:14;;;;;;;;;;;24.10;47.30;;;;;;5036548;28;19931;-75
2022/11/29 13:19:32;;;;;;;;;;;24.00;47.40;;;;;;5066121;28;19924;-72
2022/11/29 13:22:06;;;;;;;;;;;23.90;47.20;;;;;;5068730;28;20019;-70
2022/11/29 13:24:51;;;;;;;;;;;23.70;47.60;;;;;;5072684;28;19925;-70
2022/11/29 13:27:19;;;;;;;;;;;23.80;47.80;;;;;;5067358;28;19932;-66
2022/11/29 13:29:46;;;;;;;;;;;23.90;47.50;;;;;;5071744;28;20054;-67
2022/11/29 13:32:25;;;;;;;;;;;23.90;47.20;;;;;;5058873;28;20389;-67
2022/11/29 13:34:51;;;;;;;;;;;23.90;47.10;;;;;;5059322;28;19960;-67
2022/11/29 13:42:44;;;;;;;;;;;24.00;47.10;;;;;;5081903;27;20154;-70
2022/11/29 13:48:20;;;;;;;;;;;24.40;46.50;;;;;;5078896;27;1862552;-67
2022/11/29 13:50:46;;;;;;;;;;;24.50;46.10;;;;;;5116210;27;20010;-69
2022/11/29 13:53:20;;;;;;;;;;;24.60;46.00;;;;;;5115526;27;19923;-70
2022/11/29 13:55:47;;;;;;;;;;;24.70;45.90;;;;;;5116078;27;20182;-70
2022/11/29 14:01:10;;;;;;;;;;;24.70;45.90;;;;;;5062366;27;19921;-70
2022/11/29 14:03:38;;;;;;;;;;;24.60;45.90;;;;;;5082288;28;19936;-70
2022/11/29 14:06:12;;;;;;;;;;;24.60;46.00;;;;;;5080352;28;19924;-66
2022/11/29 14:08:58;;;;;;;;;;;24.50;45.90;;;;;;5045901;28;19959;-70
2022/11/29 14:11:25;;;;;;;;;;;24.40;46.00;;;;;;5050605;28;20377;-71
2022/11/29 14:19:22;;;;;;;;;;;23.50;47.10;;;;;;5077125;28;20532;-71
2022/11/29 14:29:58;;;;;;;;;;;23.40;47.00;;;;;;5105001;27;19916;-70
2022/11/29 14:32:34;;;;;;;;;;;23.50;46.90;;;;;;5087196;28;19931;-70
2022/11/29 14:35:20;;;;;;;;;;;23.70;46.60;;;;;;5092480;28;19928;-70
2022/11/29 14:40:32;;;;;;;;;;;24.30;45.40;;;;;;5082201;28;19930;-71
2022/11/29 14:42:59;;;;;;;;;;;24.50;44.90;;;;;;5055068;28;20542;-71
2022/11/29 14:45:26;;;;;;;;;;;24.70;44.60;;;;;;5070060;28;20588;-71
2022/11/29 14:47:51;;;;;;;;;;;24.80;44.40;;;;;;5074727;28;19921;-71
2022/11/29 14:50:37;;;;;;;;;;;24.80;44.30;;;;;;5067852;28;19944;-71
2022/11/29 14:53:04;;;;;;;;;;;24.90;44.30;;;;;;5066187;28;19971;-71
2022/11/29 14:55:31;;;;;;;;;;;24.70;44.30;;;;;;5067499;28;19929;-68
2022/11/29 15:03:30;;;;;;;;;;;24.40;44.30;;;;;;5106287;27;20522;-67
2022/11/29 15:05:59;;;;;;;;;;;24.10;44.60;;;;;;5101426;28;19920;-68
2022/11/29 15:13:50;;;;;;;;;;;23.50;45.40;;;;;;5101085;27;19916;-69
2022/11/29 15:16:23;;;;;;;;;;;23.30;45.60;;;;;;5104945;27;20326;-68
2022/11/29 15:18:58;;;;;;;;;;;23.30;45.90;;;;;;5100626;28;20350;-66
2022/11/29 15:21:43;;;;;;;;;;;23.10;46.20;;;;;;5102059;28;19920;-66
2022/11/29 15:24:13;;;;;;;;;;;23.00;46.40;;;;;;5102201;28;20379;-69
2022/11/29 15:26:53;;;;;;;;;;;22.80;46.70;;;;;;5101947;28;19928;-69
2022/11/29 15:29:20;;;;;;;;;;;22.70;47.10;;;;;;5098341;27;19920;-69
2022/11/29 15:31:49;;;;;;;;;;;22.60;47.30;;;;;;5118165;27;19924;-69
2022/11/29 15:34:18;;;;;;;;;;;22.50;47.60;;;;;;5122972;28;19977;-69
2022/11/29 15:36:43;;;;;;;;;;;22.40;47.80;;;;;;5107829;27;20579;-70
2022/11/29 15:39:23;;;;;;;;;;;22.40;48.00;;;;;;5104100;28;19920;-69
2022/11/29 15:41:48;;;;;;;;;;;22.20;48.20;;;;;;5105406;28;19970;-71
2022/11/29 15:44:19;;;;;;;;;;;22.20;48.40;;;;;;5103479;28;19947;-71
2022/11/29 15:46:45;;;;;;;;;;;22.10;48.60;;;;;;5111382;28;20337;-71
2022/11/29 15:49:16;;;;;;;;;;;22.10;48.70;;;;;;5100142;28;20006;-72
2022/11/29 15:51:43;;;;;;;;;;;22.10;48.90;;;;;;5130885;27;19928;-71
2022/11/29 15:54:19;;;;;;;;;;;22.10;49.20;;;;;;5103653;28;19920;-72
2022/11/29 15:59:32;;;;;;;;;;;21.90;49.80;;;;;;5117081;27;1901145;-72
2022/11/29 16:02:01;;;;;;;;;;;21.80;49.90;;;;;;5149282;27;19927;-72
2022/11/29 16:04:27;;;;;;;;;;;21.80;50.20;;;;;;5143180;27;20007;-72
2022/11/29 16:06:54;;;;;;;;;;;21.70;50.40;;;;;;5150100;27;19930;-72
2022/11/29 16:09:22;;;;;;;;;;;21.60;50.50;;;;;;5159640;27;19984;-69
2022/11/29 16:11:47;;;;;;;;;;;21.50;51.40;;;;;;5130173;27;19918;-70
2022/11/29 16:14:19;;;;;;;;;;;21.50;50.80;;;;;;5141663;27;19926;-71
2022/11/29 16:16:46;;;;;;;;;;;21.50;50.90;;;;;;5129215;27;19969;-69
2022/11/29 16:22:15;;;;;;;;;;;21.60;50.70;;;;;;5085478;28;20398;-68
2022/11/29 16:27:36;;;;;;;;;;;21.60;50.70;;;;;;5085906;28;20158;-69
2022/11/29 16:30:02;;;;;;;;;;;21.50;50.60;;;;;;5084698;28;20269;-68
2022/11/29 16:32:32;;;;;;;;;;;21.50;50.60;;;;;;5084634;28;19928;-68
2022/11/29 16:35:18;;;;;;;;;;;21.40;50.60;;;;;;5085459;28;19995;-68
2022/11/29 16:37:44;;;;;;;;;;;21.30;50.60;;;;;;5086599;28;19920;-68
2022/11/29 16:40:26;;;;;;;;;;;21.30;50.70;;;;;;5086267;28;19921;-69
2022/11/29 16:43:11;;;;;;;;;;;21.20;50.80;;;;;;5087372;28;20457;-68
2022/11/29 16:45:39;;;;;;;;;;;21.20;50.90;;;;;;5087451;28;19924;-68
2022/11/29 16:48:25;;;;;;;;;;;21.10;51.20;;;;;;5087389;28;19920;-69
2022/11/29 16:51:14;;;;;;;;;;;21.00;51.20;;;;;;5088495;28;19974;-68
2022/11/29 16:53:41;;;;;;;;;;;20.90;51.30;;;;;;5087226;28;19920;-68
2022/11/29 16:56:09;;;;;;;;;;;20.90;51.40;;;;;;5088612;28;19920;-68
2022/11/29 16:58:35;;;;;;;;;;;20.80;51.50;;;;;;5088494;28;19921;-68
2022/11/29 17:01:14;;;;;;;;;;;20.70;51.50;;;;;;5086837;28;19920;-68
2022/11/29 17:03:39;;;;;;;;;;;20.70;51.60;;;;;;5088492;28;20011;-68
2022/11/29 17:06:05;;;;;;;;;;;20.60;51.70;;;;;;5087320;28;20028;-68
2022/11/29 17:08:31;;;;;;;;;;;20.60;51.90;;;;;;5088292;28;20287;-68
2022/11/29 17:10:56;;;;;;;;;;;20.50;51.90;;;;;;5088410;28;19920;-68
2022/11/29 17:13:22;;;;;;;;;;;20.50;52.00;;;;;;5087317;28;19924;-69
2022/11/29 17:15:47;;;;;;;;;;;20.40;52.20;;;;;;5086958;28;20308;-69
2022/11/29 17:18:13;;;;;;;;;;;20.30;52.20;;;;;;5087066;28;19928;-68
2022/11/29 17:20:38;;;;;;;;;;;20.30;52.40;;;;;;5087302;28;20089;-68
2022/11/29 17:23:04;;;;;;;;;;;20.30;52.50;;;;;;5088394;28;20429;-69
2022/11/29 17:25:29;;;;;;;;;;;20.20;52.60;;;;;;5091112;28;20019;-68
2022/11/29 17:27:56;;;;;;;;;;;20.10;52.60;;;;;;5089941;28;20394;-69
2022/11/29 17:30:22;;;;;;;;;;;20.10;52.70;;;;;;5089977;28;19977;-68
2022/11/29 17:32:47;;;;;;;;;;;20.00;52.80;;;;;;5090410;28;19920;-69
2022/11/29 17:35:13;;;;;;;;;;;20.00;52.80;;;;;;5089622;28;20314;-69
2022/11/29 17:37:38;;;;;;;;;;;20.00;52.90;;;;;;5083568;28;19924;-69
2022/11/29 17:40:04;;;;;;;;;;;19.90;52.90;;;;;;5076796;28;19920;-69
2022/11/29 17:42:30;;;;;;;;;;;19.90;53.00;;;;;;5076380;28;19920;-68
2022/11/29 17:44:55;;;;;;;;;;;19.90;53.00;;;;;;5094977;28;19993;-69
2022/11/29 17:47:21;;;;;;;;;;;19.80;53.00;;;;;;5094224;28;20219;-68
2022/11/29 17:49:46;;;;;;;;;;;19.80;53.10;;;;;;5076459;28;19966;-68
2022/11/29 17:52:12;;;;;;;;;;;19.80;53.10;;;;;;5076137;28;19920;-69
2022/11/29 17:54:37;;;;;;;;;;;19.80;53.20;;;;;;5076088;28;19946;-67
2022/11/29 17:57:03;;;;;;;;;;;19.70;53.10;;;;;;5094502;28;20442;-68
2022/11/29 17:59:29;;;;;;;;;;;19.70;53.20;;;;;;5093983;28;20018;-68
2022/11/29 18:01:54;;;;;;;;;;;19.70;53.30;;;;;;5094126;28;19959;-68
2022/11/29 18:04:20;;;;;;;;;;;19.60;53.30;;;;;;5094508;28;19920;-69
2022/11/29 18:06:48;;;;;;;;;;;19.60;53.40;;;;;;5075546;28;20345;-68